sensor_id;sensor_type;location;lat;lon;timestamp;P1;durP1;ratioP1;P2;durP2;ratioP2
9384;SDS011;4732;49.340;10.886;2023-07-22T03:00:40;3.70;;;2.60;;
9384;SDS011;4732;49.340;10.886;2023-07-22T03:03:09;2.38;;;2.15;;
9384;SDS011;4732;49.340;10.886;2023-07-22T03:05:35;2.38;;;2.17;;
9384;SDS011;4732;49.340;10.886;2023-07-22T03:08:00;2.45;;;2.25;;
9384;SDS011;4732;49.340;10.886;2023-07-22T03:10:26;6.40;;;2.70;;
9384;SDS011;4732;49.340;10.886;2023-07-22T03:12:52;5.22;;;3.30;;
9384;SDS011;4732;49.340;10.886;2023-07-22T03:15:21;4.10;;;3.22;;
9384;SDS011;4732;49.340;10.886;2023-07-22T03:17:56;4.65;;;3.38;;
9384;SDS011;4732;49.340;10.886;2023-07-22T03:20:24;5.28;;;3.47;;
9384;SDS011;4732;49.340;10.886;2023-07-22T03:22:50;3.60;;;3.20;;
9384;SDS011;4732;49.340;10.886;2023-07-22T03:25:16;3.22;;;2.63;;
9384;SDS011;4732;49.340;10.886;2023-07-22T03:27:42;3.90;;;3.13;;
9384;SDS011;4732;49.340;10.886;2023-07-22T03:30:11;3.55;;;2.88;;
9384;SDS011;4732;49.340;10.886;2023-07-22T03:32:45;4.82;;;3.50;;
9384;SDS011;4732;49.340;10.886;2023-07-22T03:35:17;4.47;;;3.38;;
9384;SDS011;4732;49.340;10.886;2023-07-22T03:37:43;6.18;;;3.58;;
9384;SDS011;4732;49.340;10.886;2023-07-22T03:40:09;6.45;;;3.20;;
9384;SDS011;4732;49.340;10.886;2023-07-22T06:07:43;4.57;;;3.13;;
9384;SDS011;4732;49.340;10.886;2023-07-22T06:10:09;4.63;;;4.07;;
9384;SDS011;4732;49.340;10.886;2023-07-22T06:12:35;5.22;;;3.40;;
9384;SDS011;4732;49.340;10.886;2023-07-22T06:15:01;3.10;;;2.80;;
9384;SDS011;4732;49.340;10.886;2023-07-22T06:17:27;4.53;;;3.17;;
9384;SDS011;4732;49.340;10.886;2023-07-22T06:19:53;3.42;;;2.92;;
9384;SDS011;4732;49.340;10.886;2023-07-22T06:22:21;3.35;;;2.80;;
9384;SDS011;4732;49.340;10.886;2023-07-22T06:24:47;4.43;;;3.38;;
9384;SDS011;4732;49.340;10.886;2023-07-22T06:27:12;5.65;;;2.92;;
9384;SDS011;4732;49.340;10.886;2023-07-22T06:29:38;4.88;;;3.35;;
9384;SDS011;4732;49.340;10.886;2023-07-22T06:32:03;3.13;;;2.80;;
9384;SDS011;4732;49.340;10.886;2023-07-22T06:34:32;5.75;;;3.10;;
9384;SDS011;4732;49.340;10.886;2023-07-22T06:36:57;3.70;;;3.30;;
9384;SDS011;4732;49.340;10.886;2023-07-22T06:39:23;4.13;;;3.17;;
9384;SDS011;4732;49.340;10.886;2023-07-22T06:41:48;5.03;;;3.42;;
9384;SDS011;4732;49.340;10.886;2023-07-22T06:44:14;5.18;;;3.20;;
9384;SDS011;4732;49.340;10.886;2023-07-22T06:46:40;3.13;;;2.65;;
9384;SDS011;4732;49.340;10.886;2023-07-22T06:49:06;5.57;;;3.45;;
9384;SDS011;4732;49.340;10.886;2023-07-22T06:51:32;5.97;;;3.17;;
9384;SDS011;4732;49.340;10.886;2023-07-22T06:53:57;4.93;;;3.40;;
9384;SDS011;4732;49.340;10.886;2023-07-22T06:56:23;3.10;;;2.72;;
9384;SDS011;4732;49.340;10.886;2023-07-22T06:58:49;3.47;;;2.67;;
9384;SDS011;4732;49.340;10.886;2023-07-22T07:01:16;2.80;;;2.55;;
9384;SDS011;4732;49.340;10.886;2023-07-22T07:03:41;3.15;;;2.80;;
9384;SDS011;4732;49.340;10.886;2023-07-22T07:06:07;4.30;;;3.08;;
9384;SDS011;4732;49.340;10.886;2023-07-22T07:08:32;4.82;;;3.63;;
9384;SDS011;4732;49.340;10.886;2023-07-22T07:11:01;3.90;;;3.60;;
9384;SDS011;4732;49.340;10.886;2023-07-22T07:13:27;3.33;;;3.03;;
9384;SDS011;4732;49.340;10.886;2023-07-22T07:15:54;3.67;;;3.13;;
9384;SDS011;4732;49.340;10.886;2023-07-22T07:18:20;5.65;;;3.42;;
9384;SDS011;4732;49.340;10.886;2023-07-22T07:20:46;4.70;;;3.85;;
9384;SDS011;4732;49.340;10.886;2023-07-22T07:23:12;5.82;;;3.22;;
9384;SDS011;4732;49.340;10.886;2023-07-22T07:25:41;4.57;;;3.53;;
9384;SDS011;4732;49.340;10.886;2023-07-22T07:28:06;3.33;;;2.97;;
9384;SDS011;4732;49.340;10.886;2023-07-22T07:30:32;4.30;;;3.30;;
9384;SDS011;4732;49.340;10.886;2023-07-22T07:32:58;4.47;;;3.25;;
9384;SDS011;4732;49.340;10.886;2023-07-22T07:35:24;4.15;;;2.90;;
9384;SDS011;4732;49.340;10.886;2023-07-22T07:37:52;4.88;;;2.90;;
9384;SDS011;4732;49.340;10.886;2023-07-22T07:40:17;3.80;;;2.90;;
9384;SDS011;4732;49.340;10.886;2023-07-22T07:42:43;7.53;;;3.10;;
9384;SDS011;4732;49.340;10.886;2023-07-22T07:45:09;5.63;;;3.30;;
9384;SDS011;4732;49.340;10.886;2023-07-22T07:47:37;4.13;;;3.05;;
9384;SDS011;4732;49.340;10.886;2023-07-22T07:50:02;6.20;;;3.13;;
9384;SDS011;4732;49.340;10.886;2023-07-22T07:52:28;4.55;;;3.25;;
9384;SDS011;4732;49.340;10.886;2023-07-22T07:54:54;3.40;;;2.80;;
9384;SDS011;4732;49.340;10.886;2023-07-22T07:57:19;4.38;;;3.25;;
9384;SDS011;4732;49.340;10.886;2023-07-22T07:59:45;6.18;;;3.25;;
9384;SDS011;4732;49.340;10.886;2023-07-22T08:02:10;3.92;;;3.40;;
9384;SDS011;4732;49.340;10.886;2023-07-22T08:04:36;3.72;;;3.10;;
9384;SDS011;4732;49.340;10.886;2023-07-22T08:07:02;6.97;;;3.58;;
9384;SDS011;4732;49.340;10.886;2023-07-22T08:09:29;4.75;;;3.53;;
9384;SDS011;4732;49.340;10.886;2023-07-22T08:11:54;3.65;;;2.92;;
9384;SDS011;4732;49.340;10.886;2023-07-22T08:14:20;3.72;;;2.90;;
9384;SDS011;4732;49.340;10.886;2023-07-22T08:16:46;3.17;;;2.70;;
9384;SDS011;4732;49.340;10.886;2023-07-22T08:19:11;3.40;;;3.10;;
9384;SDS011;4732;49.340;10.886;2023-07-22T08:21:37;4.32;;;3.20;;
9384;SDS011;4732;49.340;10.886;2023-07-22T08:24:03;3.08;;;2.78;;
9384;SDS011;4732;49.340;10.886;2023-07-22T08:26:29;4.10;;;2.85;;
9384;SDS011;4732;49.340;10.886;2023-07-22T08:28:57;4.28;;;3.20;;
9384;SDS011;4732;49.340;10.886;2023-07-22T08:31:25;3.55;;;3.10;;
9384;SDS011;4732;49.340;10.886;2023-07-22T08:33:51;7.70;;;3.53;;
9384;SDS011;4732;49.340;10.886;2023-07-22T08:36:17;4.75;;;2.92;;
9384;SDS011;4732;49.340;10.886;2023-07-22T08:38:42;3.60;;;2.97;;
9384;SDS011;4732;49.340;10.886;2023-07-22T08:41:08;5.45;;;3.15;;
9384;SDS011;4732;49.340;10.886;2023-07-22T08:43:35;3.40;;;3.08;;
9384;SDS011;4732;49.340;10.886;2023-07-22T08:46:05;3.38;;;2.90;;
9384;SDS011;4732;49.340;10.886;2023-07-22T08:48:32;4.15;;;2.88;;
9384;SDS011;4732;49.340;10.886;2023-07-22T08:51:20;4.85;;;2.88;;
9384;SDS011;4732;49.340;10.886;2023-07-22T08:53:48;3.80;;;3.28;;
9384;SDS011;4732;49.340;10.886;2023-07-22T08:56:15;4.07;;;3.28;;
9384;SDS011;4732;49.340;10.886;2023-07-22T08:58:41;3.38;;;2.95;;
9384;SDS011;4732;49.340;10.886;2023-07-22T09:01:11;3.80;;;3.13;;
9384;SDS011;4732;49.340;10.886;2023-07-22T09:03:36;4.82;;;3.03;;
9384;SDS011;4732;49.340;10.886;2023-07-22T09:06:04;3.90;;;2.88;;
9384;SDS011;4732;49.340;10.886;2023-07-22T09:08:30;4.20;;;2.90;;
9384;SDS011;4732;49.340;10.886;2023-07-22T09:10:58;4.85;;;3.10;;
9384;SDS011;4732;49.340;10.886;2023-07-22T09:13:27;3.78;;;3.13;;
9384;SDS011;4732;49.340;10.886;2023-07-22T09:15:57;5.22;;;3.10;;
9384;SDS011;4732;49.340;10.886;2023-07-22T09:18:26;5.68;;;2.70;;
9384;SDS011;4732;49.340;10.886;2023-07-22T09:20:52;3.30;;;2.78;;
9384;SDS011;4732;49.340;10.886;2023-07-22T09:30:32;3.85;;;2.45;;
9384;SDS011;4732;49.340;10.886;2023-07-22T09:33:07;5.22;;;3.00;;
9384;SDS011;4732;49.340;10.886;2023-07-22T09:35:51;3.15;;;2.88;;
9384;SDS011;4732;49.340;10.886;2023-07-22T09:41:41;4.05;;;2.25;;
9384;SDS011;4732;49.340;10.886;2023-07-22T09:44:09;2.72;;;2.42;;
9384;SDS011;4732;49.340;10.886;2023-07-22T09:46:37;4.97;;;2.80;;
9384;SDS011;4732;49.340;10.886;2023-07-22T09:49:03;2.75;;;2.33;;
9384;SDS011;4732;49.340;10.886;2023-07-22T09:51:37;3.90;;;2.85;;
9384;SDS011;4732;49.340;10.886;2023-07-22T09:54:04;2.75;;;2.40;;
9384;SDS011;4732;49.340;10.886;2023-07-22T09:56:31;2.95;;;2.13;;
9384;SDS011;4732;49.340;10.886;2023-07-22T09:59:03;3.65;;;2.47;;
9384;SDS011;4732;49.340;10.886;2023-07-22T10:01:32;4.28;;;2.33;;
9384;SDS011;4732;49.340;10.886;2023-07-22T10:04:00;5.20;;;2.38;;
9384;SDS011;4732;49.340;10.886;2023-07-22T10:06:28;3.83;;;1.92;;
9384;SDS011;4732;49.340;10.886;2023-07-22T10:09:12;4.10;;;2.45;;
9384;SDS011;4732;49.340;10.886;2023-07-22T10:11:48;3.53;;;2.13;;
9384;SDS011;4732;49.340;10.886;2023-07-22T10:14:13;2.92;;;2.60;;
9384;SDS011;4732;49.340;10.886;2023-07-22T10:16:42;2.40;;;2.00;;
9384;SDS011;4732;49.340;10.886;2023-07-22T10:19:08;4.45;;;2.50;;
9384;SDS011;4732;49.340;10.886;2023-07-22T10:21:34;2.50;;;2.30;;
9384;SDS011;4732;49.340;10.886;2023-07-22T10:24:02;2.60;;;2.10;;
9384;SDS011;4732;49.340;10.886;2023-07-22T10:26:28;2.40;;;2.20;;
9384;SDS011;4732;49.340;10.886;2023-07-22T10:28:54;3.08;;;2.20;;
9384;SDS011;4732;49.340;10.886;2023-07-22T10:31:21;3.15;;;2.00;;
9384;SDS011;4732;49.340;10.886;2023-07-22T10:33:47;2.28;;;1.90;;
9384;SDS011;4732;49.340;10.886;2023-07-22T10:36:14;3.88;;;2.30;;
9384;SDS011;4732;49.340;10.886;2023-07-22T10:38:43;2.50;;;2.08;;
9384;SDS011;4732;49.340;10.886;2023-07-22T10:41:21;2.30;;;2.08;;
9384;SDS011;4732;49.340;10.886;2023-07-22T10:43:53;2.42;;;1.80;;
9384;SDS011;4732;49.340;10.886;2023-07-22T10:46:35;4.13;;;1.90;;
9384;SDS011;4732;49.340;10.886;2023-07-22T10:49:12;2.05;;;1.85;;
9384;SDS011;4732;49.340;10.886;2023-07-22T10:51:38;4.10;;;1.98;;
9384;SDS011;4732;49.340;10.886;2023-07-22T10:54:14;3.22;;;1.90;;
9384;SDS011;4732;49.340;10.886;2023-07-22T10:56:55;2.58;;;2.10;;
9384;SDS011;4732;49.340;10.886;2023-07-22T10:59:26;4.90;;;1.90;;
9384;SDS011;4732;49.340;10.886;2023-07-22T11:01:58;3.45;;;2.13;;
9384;SDS011;4732;49.340;10.886;2023-07-22T11:04:26;2.17;;;1.98;;
9384;SDS011;4732;49.340;10.886;2023-07-22T11:07:00;2.63;;;2.03;;
9384;SDS011;4732;49.340;10.886;2023-07-22T11:11:59;2.05;;;1.73;;
9384;SDS011;4732;49.340;10.886;2023-07-22T11:14:40;4.22;;;2.50;;
9384;SDS011;4732;49.340;10.886;2023-07-22T11:17:30;2.70;;;2.05;;
9384;SDS011;4732;49.340;10.886;2023-07-22T11:20:00;2.90;;;1.67;;
9384;SDS011;4732;49.340;10.886;2023-07-22T11:22:26;2.92;;;1.67;;
9384;SDS011;4732;49.340;10.886;2023-07-22T11:24:54;2.45;;;2.00;;
9384;SDS011;4732;49.340;10.886;2023-07-22T11:27:23;2.70;;;2.22;;
9384;SDS011;4732;49.340;10.886;2023-07-22T11:29:49;1.90;;;1.73;;
9384;SDS011;4732;49.340;10.886;2023-07-22T11:32:19;2.42;;;2.08;;
9384;SDS011;4732;49.340;10.886;2023-07-22T11:34:48;5.65;;;1.95;;
9384;SDS011;4732;49.340;10.886;2023-07-22T11:37:16;4.82;;;2.20;;
9384;SDS011;4732;49.340;10.886;2023-07-22T11:39:43;5.63;;;1.80;;
9384;SDS011;4732;49.340;10.886;2023-07-22T11:42:09;5.38;;;2.22;;
9384;SDS011;4732;49.340;10.886;2023-07-22T11:44:36;3.10;;;2.30;;
9384;SDS011;4732;49.340;10.886;2023-07-22T11:47:03;2.97;;;1.65;;
9384;SDS011;4732;49.340;10.886;2023-07-22T11:49:31;4.75;;;2.00;;
9384;SDS011;4732;49.340;10.886;2023-07-22T11:54:32;2.92;;;2.00;;
9384;SDS011;4732;49.340;10.886;2023-07-22T11:59:45;3.90;;;1.92;;
9384;SDS011;4732;49.340;10.886;2023-07-22T12:02:13;2.30;;;2.10;;
9384;SDS011;4732;49.340;10.886;2023-07-22T12:04:39;6.00;;;5.13;;
9384;SDS011;4732;49.340;10.886;2023-07-22T12:07:05;3.10;;;1.98;;
9384;SDS011;4732;49.340;10.886;2023-07-22T12:09:31;3.80;;;1.77;;
9384;SDS011;4732;49.340;10.886;2023-07-22T12:12:00;20.35;;;2.30;;
9384;SDS011;4732;49.340;10.886;2023-07-22T12:14:33;7.25;;;2.30;;
9384;SDS011;4732;49.340;10.886;2023-07-22T12:17:02;4.63;;;2.10;;
9384;SDS011;4732;49.340;10.886;2023-07-22T12:19:28;1.77;;;1.60;;
9384;SDS011;4732;49.340;10.886;2023-07-22T12:21:57;5.40;;;1.85;;
9384;SDS011;4732;49.340;10.886;2023-07-22T12:24:23;1.83;;;1.60;;
9384;SDS011;4732;49.340;10.886;2023-07-22T12:26:49;3.65;;;1.60;;
9384;SDS011;4732;49.340;10.886;2023-07-22T12:29:14;2.88;;;2.08;;
9384;SDS011;4732;49.340;10.886;2023-07-22T12:31:40;2.20;;;1.92;;
9384;SDS011;4732;49.340;10.886;2023-07-22T12:34:05;3.80;;;2.33;;
9384;SDS011;4732;49.340;10.886;2023-07-22T12:36:31;5.63;;;2.10;;
9384;SDS011;4732;49.340;10.886;2023-07-22T12:38:59;3.85;;;2.05;;
9384;SDS011;4732;49.340;10.886;2023-07-22T12:41:25;5.35;;;1.70;;
9384;SDS011;4732;49.340;10.886;2023-07-22T12:43:53;5.18;;;2.08;;
9384;SDS011;4732;49.340;10.886;2023-07-22T12:46:18;2.92;;;1.80;;
9384;SDS011;4732;49.340;10.886;2023-07-22T12:48:44;4.93;;;1.98;;
9384;SDS011;4732;49.340;10.886;2023-07-22T12:51:09;4.05;;;1.90;;
9384;SDS011;4732;49.340;10.886;2023-07-22T12:53:35;6.20;;;2.00;;
9384;SDS011;4732;49.340;10.886;2023-07-22T12:56:01;2.60;;;2.00;;
9384;SDS011;4732;49.340;10.886;2023-07-22T12:58:28;4.95;;;2.22;;
9384;SDS011;4732;49.340;10.886;2023-07-22T13:00:54;3.63;;;1.88;;
9384;SDS011;4732;49.340;10.886;2023-07-22T13:03:22;4.88;;;2.13;;
9384;SDS011;4732;49.340;10.886;2023-07-22T13:05:48;5.68;;;2.15;;
9384;SDS011;4732;49.340;10.886;2023-07-22T13:08:13;4.63;;;1.92;;
9384;SDS011;4732;49.340;10.886;2023-07-22T13:10:39;2.45;;;2.05;;
9384;SDS011;4732;49.340;10.886;2023-07-22T13:13:08;5.03;;;2.00;;
9384;SDS011;4732;49.340;10.886;2023-07-22T13:15:35;4.75;;;1.70;;
9384;SDS011;4732;49.340;10.886;2023-07-22T13:18:01;2.88;;;2.13;;
9384;SDS011;4732;49.340;10.886;2023-07-22T13:20:27;3.58;;;2.17;;
9384;SDS011;4732;49.340;10.886;2023-07-22T13:22:56;4.97;;;2.00;;
9384;SDS011;4732;49.340;10.886;2023-07-22T13:25:22;6.82;;;2.20;;
9384;SDS011;4732;49.340;10.886;2023-07-22T13:27:48;6.05;;;1.92;;
9384;SDS011;4732;49.340;10.886;2023-07-22T13:30:13;2.40;;;1.77;;
9384;SDS011;4732;49.340;10.886;2023-07-22T13:32:39;3.65;;;1.90;;
9384;SDS011;4732;49.340;10.886;2023-07-22T13:35:05;3.53;;;2.00;;
9384;SDS011;4732;49.340;10.886;2023-07-22T13:37:31;2.65;;;1.85;;
9384;SDS011;4732;49.340;10.886;2023-07-22T13:39:59;7.05;;;2.08;;
9384;SDS011;4732;49.340;10.886;2023-07-22T13:42:25;2.30;;;2.00;;
9384;SDS011;4732;49.340;10.886;2023-07-22T13:44:50;2.72;;;1.83;;
9384;SDS011;4732;49.340;10.886;2023-07-22T13:47:19;3.17;;;2.63;;
9384;SDS011;4732;49.340;10.886;2023-07-22T13:49:44;5.07;;;2.90;;
9384;SDS011;4732;49.340;10.886;2023-07-22T13:52:10;3.55;;;1.95;;
9384;SDS011;4732;49.340;10.886;2023-07-22T13:54:39;2.15;;;1.70;;
9384;SDS011;4732;49.340;10.886;2023-07-22T13:57:05;2.83;;;2.10;;
9384;SDS011;4732;49.340;10.886;2023-07-22T13:59:34;4.47;;;2.00;;
9384;SDS011;4732;49.340;10.886;2023-07-22T14:01:59;1.80;;;1.70;;
9384;SDS011;4732;49.340;10.886;2023-07-22T14:04:25;3.13;;;2.08;;
9384;SDS011;4732;49.340;10.886;2023-07-22T14:06:50;2.97;;;1.88;;
9384;SDS011;4732;49.340;10.886;2023-07-22T14:09:16;2.83;;;1.63;;
9384;SDS011;4732;49.340;10.886;2023-07-22T14:11:41;2.42;;;1.95;;
9384;SDS011;4732;49.340;10.886;2023-07-22T14:14:07;5.75;;;1.88;;
9384;SDS011;4732;49.340;10.886;2023-07-22T14:16:32;3.80;;;1.90;;
9384;SDS011;4732;49.340;10.886;2023-07-22T14:18:58;1.88;;;1.58;;
9384;SDS011;4732;49.340;10.886;2023-07-22T14:21:24;1.98;;;1.77;;
9384;SDS011;4732;49.340;10.886;2023-07-22T14:23:49;3.35;;;1.80;;
9384;SDS011;4732;49.340;10.886;2023-07-22T14:26:15;2.55;;;1.67;;
9384;SDS011;4732;49.340;10.886;2023-07-22T14:28:41;3.58;;;1.80;;
9384;SDS011;4732;49.340;10.886;2023-07-22T14:31:06;3.80;;;1.80;;
9384;SDS011;4732;49.340;10.886;2023-07-22T14:33:32;2.95;;;1.70;;
9384;SDS011;4732;49.340;10.886;2023-07-22T14:35:57;3.58;;;1.65;;
9384;SDS011;4732;49.340;10.886;2023-07-22T14:38:23;3.15;;;1.60;;
9384;SDS011;4732;49.340;10.886;2023-07-22T14:40:48;1.80;;;1.70;;
9384;SDS011;4732;49.340;10.886;2023-07-22T14:43:14;1.92;;;1.80;;
9384;SDS011;4732;49.340;10.886;2023-07-22T14:45:43;2.05;;;1.85;;
9384;SDS011;4732;49.340;10.886;2023-07-22T14:48:08;3.25;;;1.70;;
9384;SDS011;4732;49.340;10.886;2023-07-22T14:50:35;2.55;;;1.70;;
9384;SDS011;4732;49.340;10.886;2023-07-22T14:53:01;2.00;;;1.80;;
9384;SDS011;4732;49.340;10.886;2023-07-22T14:55:29;1.70;;;1.60;;
9384;SDS011;4732;49.340;10.886;2023-07-22T14:57:55;2.00;;;1.77;;
9384;SDS011;4732;49.340;10.886;2023-07-22T15:00:21;4.60;;;1.70;;
9384;SDS011;4732;49.340;10.886;2023-07-22T15:02:47;3.90;;;1.60;;
9384;SDS011;4732;49.340;10.886;2023-07-22T15:05:15;2.13;;;1.85;;
9384;SDS011;4732;49.340;10.886;2023-07-22T15:07:41;2.75;;;2.00;;
9384;SDS011;4732;49.340;10.886;2023-07-22T15:10:06;3.92;;;1.60;;
9384;SDS011;4732;49.340;10.886;2023-07-22T15:12:32;3.05;;;1.73;;
9384;SDS011;4732;49.340;10.886;2023-07-22T15:15:01;6.03;;;1.85;;
9384;SDS011;4732;49.340;10.886;2023-07-22T15:17:26;4.20;;;1.58;;
9384;SDS011;4732;49.340;10.886;2023-07-22T15:19:52;6.78;;;1.90;;
9384;SDS011;4732;49.340;10.886;2023-07-22T15:22:18;2.40;;;1.80;;
9384;SDS011;4732;49.340;10.886;2023-07-22T15:24:48;5.90;;;2.03;;
9384;SDS011;4732;49.340;10.886;2023-07-22T15:27:17;2.47;;;1.70;;
9384;SDS011;4732;49.340;10.886;2023-07-22T15:29:55;2.58;;;1.70;;
9384;SDS011;4732;49.340;10.886;2023-07-22T15:32:21;2.38;;;1.70;;
9384;SDS011;4732;49.340;10.886;2023-07-22T15:34:57;1.98;;;1.77;;
9384;SDS011;4732;49.340;10.886;2023-07-22T15:37:22;2.55;;;1.42;;
9384;SDS011;4732;49.340;10.886;2023-07-22T15:39:56;3.70;;;1.73;;
9384;SDS011;4732;49.340;10.886;2023-07-22T15:42:22;3.90;;;1.88;;
9384;SDS011;4732;49.340;10.886;2023-07-22T15:44:47;2.10;;;1.90;;
9384;SDS011;4732;49.340;10.886;2023-07-22T15:47:37;2.42;;;1.65;;
9384;SDS011;4732;49.340;10.886;2023-07-22T15:50:02;1.75;;;1.50;;
9384;SDS011;4732;49.340;10.886;2023-07-22T15:52:28;2.15;;;1.73;;
9384;SDS011;4732;49.340;10.886;2023-07-22T15:54:53;2.08;;;1.58;;
9384;SDS011;4732;49.340;10.886;2023-07-22T15:57:19;3.38;;;1.60;;
9384;SDS011;4732;49.340;10.886;2023-07-22T15:59:44;2.15;;;1.60;;
9384;SDS011;4732;49.340;10.886;2023-07-22T16:02:12;3.28;;;1.83;;
9384;SDS011;4732;49.340;10.886;2023-07-22T16:04:45;4.32;;;1.70;;
9384;SDS011;4732;49.340;10.886;2023-07-22T16:07:11;2.10;;;1.60;;
9384;SDS011;4732;49.340;10.886;2023-07-22T16:09:36;2.03;;;1.75;;
9384;SDS011;4732;49.340;10.886;2023-07-22T16:12:02;2.97;;;1.63;;
9384;SDS011;4732;49.340;10.886;2023-07-22T16:14:31;3.63;;;1.80;;
9384;SDS011;4732;49.340;10.886;2023-07-22T16:17:00;4.32;;;1.70;;
9384;SDS011;4732;49.340;10.886;2023-07-22T16:19:33;1.88;;;1.50;;
9384;SDS011;4732;49.340;10.886;2023-07-22T16:21:59;2.72;;;1.60;;
9384;SDS011;4732;49.340;10.886;2023-07-22T16:24:24;3.70;;;2.05;;
9384;SDS011;4732;49.340;10.886;2023-07-22T16:26:51;2.03;;;1.75;;
9384;SDS011;4732;49.340;10.886;2023-07-22T16:29:16;3.15;;;1.73;;
9384;SDS011;4732;49.340;10.886;2023-07-22T16:31:42;2.65;;;1.55;;
9384;SDS011;4732;49.340;10.886;2023-07-22T16:34:10;3.42;;;1.75;;
9384;SDS011;4732;49.340;10.886;2023-07-22T16:36:36;2.10;;;1.70;;
9384;SDS011;4732;49.340;10.886;2023-07-22T16:39:02;1.50;;;1.40;;
9384;SDS011;4732;49.340;10.886;2023-07-22T16:41:28;1.75;;;1.35;;
9384;SDS011;4732;49.340;10.886;2023-07-22T16:43:53;6.00;;;1.75;;
9384;SDS011;4732;49.340;10.886;2023-07-22T16:46:19;3.35;;;1.60;;
9384;SDS011;4732;49.340;10.886;2023-07-22T16:48:46;3.50;;;1.80;;
9384;SDS011;4732;49.340;10.886;2023-07-22T16:51:12;4.60;;;1.63;;
9384;SDS011;4732;49.340;10.886;2023-07-22T16:53:40;2.67;;;1.73;;
9384;SDS011;4732;49.340;10.886;2023-07-22T16:56:06;4.68;;;1.63;;
9384;SDS011;4732;49.340;10.886;2023-07-22T16:58:32;3.20;;;1.52;;
9384;SDS011;4732;49.340;10.886;2023-07-22T17:01:00;4.57;;;1.90;;
9384;SDS011;4732;49.340;10.886;2023-07-22T17:03:26;2.40;;;1.67;;
9384;SDS011;4732;49.340;10.886;2023-07-22T17:05:51;1.88;;;1.70;;
9384;SDS011;4732;49.340;10.886;2023-07-22T17:08:17;1.63;;;1.50;;
9384;SDS011;4732;49.340;10.886;2023-07-22T17:10:42;1.92;;;1.50;;
9384;SDS011;4732;49.340;10.886;2023-07-22T17:13:10;1.90;;;1.70;;
9384;SDS011;4732;49.340;10.886;2023-07-22T17:15:36;4.63;;;1.70;;
9384;SDS011;4732;49.340;10.886;2023-07-22T17:18:01;4.65;;;1.70;;
9384;SDS011;4732;49.340;10.886;2023-07-22T17:20:27;2.88;;;1.50;;
9384;SDS011;4732;49.340;10.886;2023-07-22T17:22:52;4.82;;;1.80;;
9384;SDS011;4732;49.340;10.886;2023-07-22T17:25:18;2.33;;;1.90;;
9384;SDS011;4732;49.340;10.886;2023-07-22T17:27:44;1.90;;;1.70;;
9384;SDS011;4732;49.340;10.886;2023-07-22T17:30:09;2.63;;;1.63;;
9384;SDS011;4732;49.340;10.886;2023-07-22T17:32:35;2.03;;;1.80;;
9384;SDS011;4732;49.340;10.886;2023-07-22T17:35:01;2.70;;;1.83;;
9384;SDS011;4732;49.340;10.886;2023-07-22T17:37:26;2.90;;;2.00;;
9384;SDS011;4732;49.340;10.886;2023-07-22T17:39:52;2.40;;;1.60;;
9384;SDS011;4732;49.340;10.886;2023-07-22T17:42:18;4.70;;;2.25;;
9384;SDS011;4732;49.340;10.886;2023-07-22T17:44:45;2.17;;;1.60;;
9384;SDS011;4732;49.340;10.886;2023-07-22T17:47:11;3.17;;;1.90;;
9384;SDS011;4732;49.340;10.886;2023-07-22T17:49:37;4.45;;;1.92;;
9384;SDS011;4732;49.340;10.886;2023-07-22T17:52:03;3.13;;;1.60;;
9384;SDS011;4732;49.340;10.886;2023-07-22T17:54:29;2.00;;;1.80;;
9384;SDS011;4732;49.340;10.886;2023-07-22T17:56:54;3.95;;;1.83;;
9384;SDS011;4732;49.340;10.886;2023-07-22T17:59:20;3.53;;;2.03;;
9384;SDS011;4732;49.340;10.886;2023-07-22T18:01:45;2.05;;;1.90;;
9384;SDS011;4732;49.340;10.886;2023-07-22T18:04:13;3.67;;;2.25;;
9384;SDS011;4732;49.340;10.886;2023-07-22T18:06:39;5.90;;;2.10;;
9384;SDS011;4732;49.340;10.886;2023-07-22T18:09:04;2.17;;;1.98;;
9384;SDS011;4732;49.340;10.886;2023-07-22T18:11:30;3.08;;;2.20;;
9384;SDS011;4732;49.340;10.886;2023-07-22T18:14:01;3.65;;;2.10;;
9384;SDS011;4732;49.340;10.886;2023-07-22T18:16:27;3.35;;;2.10;;
9384;SDS011;4732;49.340;10.886;2023-07-22T18:18:53;3.13;;;2.08;;
9384;SDS011;4732;49.340;10.886;2023-07-22T18:21:18;5.10;;;2.30;;
9384;SDS011;4732;49.340;10.886;2023-07-22T18:23:44;3.10;;;2.03;;
9384;SDS011;4732;49.340;10.886;2023-07-22T18:26:09;4.40;;;2.10;;
9384;SDS011;4732;49.340;10.886;2023-07-22T18:28:40;3.05;;;2.13;;
9384;SDS011;4732;49.340;10.886;2023-07-22T18:31:05;3.78;;;2.20;;
9384;SDS011;4732;49.340;10.886;2023-07-22T18:33:32;10.07;;;2.53;;
9384;SDS011;4732;49.340;10.886;2023-07-22T18:35:57;3.72;;;2.38;;
9384;SDS011;4732;49.340;10.886;2023-07-22T18:38:23;6.57;;;2.40;;
9384;SDS011;4732;49.340;10.886;2023-07-22T18:40:49;2.63;;;2.20;;
9384;SDS011;4732;49.340;10.886;2023-07-22T18:43:14;2.78;;;2.15;;
9384;SDS011;4732;49.340;10.886;2023-07-22T18:45:40;2.15;;;1.95;;
9384;SDS011;4732;49.340;10.886;2023-07-22T18:48:09;3.10;;;2.17;;
9384;SDS011;4732;49.340;10.886;2023-07-22T18:50:34;2.20;;;1.98;;
9384;SDS011;4732;49.340;10.886;2023-07-22T18:53:01;5.63;;;2.15;;
9384;SDS011;4732;49.340;10.886;2023-07-22T18:55:30;3.42;;;2.10;;
9384;SDS011;4732;49.340;10.886;2023-07-22T18:57:58;3.17;;;2.00;;
9384;SDS011;4732;49.340;10.886;2023-07-22T19:00:23;2.58;;;2.22;;
9384;SDS011;4732;49.340;10.886;2023-07-22T19:02:49;2.97;;;2.35;;
9384;SDS011;4732;49.340;10.886;2023-07-22T19:05:15;2.38;;;2.17;;
9384;SDS011;4732;49.340;10.886;2023-07-22T19:07:41;2.35;;;2.03;;
9384;SDS011;4732;49.340;10.886;2023-07-22T19:10:06;4.57;;;2.45;;
9384;SDS011;4732;49.340;10.886;2023-07-22T19:12:32;3.40;;;2.15;;
9384;SDS011;4732;49.340;10.886;2023-07-22T19:14:57;3.78;;;1.90;;
9384;SDS011;4732;49.340;10.886;2023-07-22T19:17:23;4.25;;;2.00;;
9384;SDS011;4732;49.340;10.886;2023-07-22T19:19:50;2.92;;;1.90;;
9384;SDS011;4732;49.340;10.886;2023-07-22T19:22:16;2.47;;;2.08;;
9384;SDS011;4732;49.340;10.886;2023-07-22T19:24:44;2.33;;;2.10;;
9384;SDS011;4732;49.340;10.886;2023-07-22T19:27:14;3.22;;;2.17;;
9384;SDS011;4732;49.340;10.886;2023-07-22T19:29:40;2.10;;;1.90;;
9384;SDS011;4732;49.340;10.886;2023-07-22T19:32:07;2.25;;;1.98;;
9384;SDS011;4732;49.340;10.886;2023-07-22T19:34:33;4.55;;;2.33;;
9384;SDS011;4732;49.340;10.886;2023-07-22T19:36:59;3.30;;;2.20;;
9384;SDS011;4732;49.340;10.886;2023-07-22T19:39:28;3.83;;;2.17;;
9384;SDS011;4732;49.340;10.886;2023-07-22T19:41:54;3.47;;;2.30;;
9384;SDS011;4732;49.340;10.886;2023-07-22T19:44:20;3.10;;;2.47;;
9384;SDS011;4732;49.340;10.886;2023-07-22T19:46:45;2.83;;;2.22;;
9384;SDS011;4732;49.340;10.886;2023-07-22T19:49:13;6.13;;;2.47;;
9384;SDS011;4732;49.340;10.886;2023-07-22T19:51:39;3.83;;;2.38;;
9384;SDS011;4732;49.340;10.886;2023-07-22T19:54:05;6.15;;;2.60;;
9384;SDS011;4732;49.340;10.886;2023-07-22T19:56:30;6.15;;;2.63;;
9384;SDS011;4732;49.340;10.886;2023-07-22T19:58:56;3.75;;;2.70;;
9384;SDS011;4732;49.340;10.886;2023-07-22T20:01:22;4.05;;;2.45;;
9384;SDS011;4732;49.340;10.886;2023-07-22T20:03:49;2.47;;;2.00;;
9384;SDS011;4732;49.340;10.886;2023-07-22T20:06:15;5.47;;;2.35;;
9384;SDS011;4732;49.340;10.886;2023-07-22T20:08:41;2.80;;;2.33;;
9384;SDS011;4732;49.340;10.886;2023-07-22T20:11:07;5.03;;;2.60;;
9384;SDS011;4732;49.340;10.886;2023-07-22T20:13:33;3.25;;;2.42;;
9384;SDS011;4732;49.340;10.886;2023-07-22T20:16:02;2.25;;;2.05;;
9384;SDS011;4732;49.340;10.886;2023-07-22T20:18:27;4.07;;;2.25;;
9384;SDS011;4732;49.340;10.886;2023-07-22T20:20:53;5.75;;;2.58;;
9384;SDS011;4732;49.340;10.886;2023-07-22T20:23:19;3.42;;;2.72;;
9384;SDS011;4732;49.340;10.886;2023-07-22T20:25:44;4.60;;;2.33;;
9384;SDS011;4732;49.340;10.886;2023-07-22T20:28:10;2.70;;;2.45;;
9384;SDS011;4732;49.340;10.886;2023-07-22T20:30:36;3.97;;;2.22;;
9384;SDS011;4732;49.340;10.886;2023-07-22T20:33:01;3.13;;;2.33;;
9384;SDS011;4732;49.340;10.886;2023-07-22T20:35:27;4.93;;;2.60;;
9384;SDS011;4732;49.340;10.886;2023-07-22T20:37:52;2.75;;;2.15;;
9384;SDS011;4732;49.340;10.886;2023-07-22T20:40:18;4.65;;;2.40;;
9384;SDS011;4732;49.340;10.886;2023-07-22T20:42:44;3.38;;;2.63;;